createdAt,value
2018-11-28T00:01:52.281Z,12.28
2018-11-28T00:04:21.893Z,11.18
2018-11-28T00:06:53.853Z,11.78
2018-11-28T00:09:23.071Z,13.05
2018-11-28T00:11:52.136Z,11.75
2018-11-28T00:14:21.236Z,12.03
2018-11-28T00:16:50.482Z,13.48
2018-11-28T00:19:19.647Z,12.33
2018-11-28T00:21:49.117Z,12.15
2018-11-28T00:24:18.594Z,11.83
2018-11-28T00:26:49.566Z,12.15
2018-11-28T00:29:18.954Z,11.28
2018-11-28T00:31:50.191Z,12.68
2018-11-28T00:34:20.357Z,11.90
2018-11-28T00:36:49.308Z,12.63
2018-11-28T00:39:18.234Z,12.03
2018-11-28T00:41:47.984Z,12.73
2018-11-28T00:44:17.111Z,12.55
2018-11-28T00:46:46.534Z,12.20
2018-11-28T00:49:20.669Z,12.00
2018-11-28T00:51:50.948Z,12.68
2018-11-28T00:54:20.226Z,13.30
2018-11-28T00:56:51.113Z,11.97
2018-11-28T00:59:20.372Z,13.48
2018-11-28T01:01:49.863Z,13.70
2018-11-28T01:04:19.214Z,14.50
2018-11-28T01:06:48.947Z,12.77
2018-11-28T01:09:18.028Z,14.33
2018-11-28T01:11:47.127Z,13.07
2018-11-28T01:14:17.671Z,14.20
2018-11-28T01:16:48.062Z,13.03
2018-11-28T01:19:17.417Z,12.70
2018-11-28T01:21:47.516Z,12.87
2018-11-28T01:24:17.424Z,13.30
2018-11-28T01:26:47.385Z,14.40
2018-11-28T01:29:16.351Z,14.17
2018-11-28T01:31:45.312Z,14.33
2018-11-28T01:34:15.421Z,13.60
2018-11-28T01:36:44.721Z,13.23
2018-11-28T01:39:13.887Z,13.50
2018-11-28T01:41:42.912Z,13.20
2018-11-28T01:44:12.478Z,12.83
2018-11-28T01:46:41.712Z,14.57
2018-11-28T01:49:10.847Z,12.43
2018-11-28T01:51:41.183Z,13.45
2018-11-28T01:54:10.570Z,12.80
2018-11-28T01:56:39.443Z,13.97
2018-11-28T01:59:08.743Z,13.25
2018-11-28T02:01:37.846Z,12.63
2018-11-28T02:04:07.001Z,13.03
2018-11-28T02:06:36.320Z,12.85
2018-11-28T02:09:07.645Z,12.63
2018-11-28T02:11:37.060Z,12.25
2018-11-28T02:14:07.164Z,13.62
2018-11-28T02:16:36.363Z,13.20
2018-11-28T02:19:08.018Z,12.78
2018-11-28T02:21:37.131Z,14.05
2018-11-28T02:24:06.189Z,12.73
2018-11-28T02:26:35.830Z,14.15
2018-11-28T02:29:05.311Z,13.78
2018-11-28T02:31:34.722Z,12.55
2018-11-28T02:34:04.684Z,14.28
2018-11-28T02:36:33.837Z,14.00
2018-11-28T02:39:03.555Z,14.98
2018-11-28T02:41:32.849Z,13.62
2018-11-28T02:44:02.766Z,14.40
2018-11-28T02:46:31.982Z,14.17
2018-11-28T02:49:01.000Z,14.13
2018-11-28T02:51:31.217Z,14.15
2018-11-28T02:54:01.556Z,13.80
2018-11-28T02:56:31.300Z,14.20
2018-11-28T02:59:00.406Z,13.28
2018-11-28T03:01:29.911Z,14.90
2018-11-28T03:03:58.997Z,15.88
2018-11-28T03:06:28.152Z,14.63
2018-11-28T03:08:58.056Z,15.80
2018-11-28T03:11:27.228Z,14.57
2018-11-28T03:13:57.097Z,13.73
2018-11-28T03:16:26.500Z,16.17
2018-11-28T03:18:55.665Z,15.63
2018-11-28T03:21:25.935Z,14.47
2018-11-28T03:23:55.154Z,15.47
2018-11-28T03:26:24.480Z,14.23
2018-11-28T03:28:53.559Z,15.97
2018-11-28T03:31:23.499Z,15.23
2018-11-28T03:33:52.497Z,16.07
2018-11-28T03:36:21.504Z,15.07
2018-11-28T03:38:51.161Z,14.73
2018-11-28T03:41:20.771Z,14.90
2018-11-28T03:43:50.359Z,15.80
2018-11-28T03:46:21.085Z,16.00
2018-11-28T03:48:50.081Z,15.03
2018-11-28T03:51:19.101Z,16.00
2018-11-28T03:53:48.359Z,13.73
2018-11-28T03:56:18.138Z,14.97
2018-11-28T03:58:47.274Z,14.47
2018-11-28T04:01:20.500Z,15.03
2018-11-28T04:03:55.621Z,15.50
2018-11-28T04:06:29.741Z,14.33
2018-11-28T04:09:02.613Z,15.23
2018-11-28T04:11:34.268Z,14.73
2018-11-28T04:14:06.146Z,14.10
2018-11-28T04:16:35.873Z,15.83
2018-11-28T04:19:06.088Z,14.33
2018-11-28T04:21:35.190Z,13.63
2018-11-28T04:24:04.999Z,14.30
2018-11-28T04:26:33.976Z,14.07
2018-11-28T04:29:03.167Z,14.17
2018-11-28T04:31:32.220Z,14.40
2018-11-28T04:34:01.168Z,15.63
2018-11-28T04:36:31.834Z,14.37
2018-11-28T04:39:00.855Z,15.10
2018-11-28T04:41:29.947Z,15.07
2018-11-28T04:44:00.433Z,14.30
2018-11-28T04:46:31.216Z,14.93
2018-11-28T04:49:00.443Z,16.13
2018-11-28T04:51:29.550Z,15.33
2018-11-28T04:53:59.028Z,14.70
2018-11-28T04:56:28.484Z,15.80
2018-11-28T04:58:57.556Z,15.97
2018-11-28T05:01:27.139Z,15.07
2018-11-28T05:03:56.045Z,15.60
2018-11-28T05:07:28.349Z,14.13
2018-11-28T05:09:57.876Z,14.97
2018-11-28T05:12:26.912Z,14.37
2018-11-28T05:14:55.846Z,14.10
2018-11-28T05:17:25.037Z,15.60
2018-11-28T05:19:53.913Z,14.20
2018-11-28T05:22:23.792Z,14.87
2018-11-28T05:24:53.233Z,14.63
2018-11-28T05:27:22.376Z,15.60
2018-11-28T05:29:51.610Z,14.70
2018-11-28T05:32:20.821Z,15.00
2018-11-28T05:34:50.516Z,14.07
2018-11-28T05:37:19.678Z,14.13
2018-11-28T05:39:49.181Z,15.63
2018-11-28T05:42:20.379Z,15.27
2018-11-28T05:44:50.036Z,15.37
2018-11-28T05:47:19.040Z,16.40
2018-11-28T05:49:48.252Z,15.30
2018-11-28T05:52:17.557Z,15.53
2018-11-28T05:55:12.605Z,15.43
2018-11-28T05:57:44.044Z,15.83
2018-11-28T06:00:22.672Z,15.33
2018-11-28T06:02:51.979Z,14.33
2018-11-28T06:05:21.107Z,15.77
2018-11-28T06:07:51.737Z,16.07
2018-11-28T06:10:21.836Z,15.07
2018-11-28T06:12:51.962Z,16.23
2018-11-28T06:15:21.713Z,14.03
2018-11-28T06:17:51.687Z,13.48
2018-11-28T06:20:22.236Z,18.80
2018-11-28T06:22:52.349Z,15.50
2018-11-28T06:25:21.922Z,16.00
2018-11-28T06:27:52.298Z,14.63
2018-11-28T06:30:22.265Z,15.13
2018-11-28T06:32:51.727Z,15.10
2018-11-28T06:35:21.569Z,15.07
2018-11-28T06:37:51.444Z,15.87
2018-11-28T06:40:26.386Z,16.03
2018-11-28T06:42:59.525Z,15.60
2018-11-28T06:45:34.333Z,14.90
2018-11-28T06:48:07.476Z,16.23
2018-11-28T06:50:39.634Z,16.60
2018-11-28T06:53:19.629Z,14.17
2018-11-28T06:55:52.154Z,13.87
2018-11-28T06:58:25.737Z,16.13
2018-11-28T07:00:57.490Z,14.33
2018-11-28T07:03:29.721Z,15.07
2018-11-28T07:06:03.571Z,16.70
2018-11-28T07:08:35.304Z,15.80
2018-11-28T07:11:08.127Z,16.27
2018-11-28T07:13:39.624Z,15.57
2018-11-28T07:16:10.971Z,14.87
2018-11-28T07:18:47.968Z,15.30
2018-11-28T07:21:20.576Z,14.93
2018-11-28T07:23:52.986Z,13.50
2018-11-28T07:26:24.272Z,14.30
2018-11-28T07:28:55.255Z,15.03
2018-11-28T07:31:31.242Z,14.40
2018-11-28T07:34:02.733Z,15.10
2018-11-28T07:36:42.156Z,14.90
2018-11-28T07:39:14.030Z,15.47
2018-11-28T07:41:44.079Z,15.03
2018-11-28T07:44:14.207Z,14.97
2018-11-28T07:46:45.203Z,14.30
2018-11-28T07:49:17.353Z,14.27
2018-11-28T07:51:54.000Z,15.67
2018-11-28T07:54:23.931Z,15.80
2018-11-28T07:56:54.775Z,14.73
2018-11-28T07:59:34.468Z,14.97
2018-11-28T08:02:10.498Z,14.93
2018-11-28T08:04:45.534Z,14.60
2018-11-28T08:07:16.434Z,14.93
2018-11-28T08:09:47.765Z,13.83
2018-11-28T08:12:19.794Z,15.13
2018-11-28T08:14:52.059Z,15.07
2018-11-28T08:17:25.138Z,15.10
2018-11-28T08:19:57.683Z,14.57
2018-11-28T08:22:30.588Z,15.30
2018-11-28T08:25:02.537Z,14.60
2018-11-28T08:27:34.874Z,14.27
2018-11-28T08:30:09.547Z,13.90
2018-11-28T08:32:45.526Z,14.27
2018-11-28T08:35:15.829Z,14.13
2018-11-28T08:37:49.880Z,14.07
2018-11-28T08:40:25.244Z,13.90
2018-11-28T08:42:57.674Z,14.43
2018-11-28T08:45:30.291Z,14.77
2018-11-28T08:48:01.799Z,13.17
2018-11-28T08:50:33.772Z,14.10
2018-11-28T08:53:05.098Z,14.07
2018-11-28T08:55:35.278Z,13.50
2018-11-28T08:58:04.709Z,13.20
2018-11-28T09:00:33.707Z,13.70
2018-11-28T09:03:03.261Z,13.87
2018-11-28T09:05:34.176Z,11.87
2018-11-28T09:08:04.368Z,12.63
2018-11-28T09:10:37.560Z,12.33
2018-11-28T09:13:09.333Z,13.10
2018-11-28T09:15:39.694Z,11.53
2018-11-28T09:18:08.755Z,13.17
2018-11-28T09:20:37.873Z,12.60
2018-11-28T09:23:07.837Z,10.70
2018-11-28T09:25:40.529Z,10.77
2018-11-28T09:28:10.705Z,11.33
2018-11-28T09:30:40.761Z,10.43
2018-11-28T09:33:12.693Z,9.50
2018-11-28T09:35:43.273Z,10.60
2018-11-28T09:38:14.265Z,10.47
2018-11-28T09:40:45.109Z,9.77
2018-11-28T09:43:16.151Z,10.10
2018-11-28T09:45:46.287Z,9.77
2018-11-28T09:48:16.160Z,10.57
2018-11-28T09:50:46.246Z,9.13
2018-11-28T09:53:15.538Z,10.20
2018-11-28T09:55:47.679Z,8.90
2018-11-28T09:58:17.331Z,9.77
2018-11-28T10:00:47.903Z,9.23
2018-11-28T10:03:18.951Z,9.77
2018-11-28T10:05:50.232Z,9.50
2018-11-28T10:08:44.809Z,8.87
2018-11-28T10:11:22.609Z,8.57
2018-11-28T10:13:51.891Z,8.47
2018-11-28T10:16:21.756Z,8.53
2018-11-28T10:18:51.128Z,10.07
2018-11-28T10:21:21.139Z,9.07
2018-11-28T10:23:50.840Z,9.97
2018-11-28T10:26:20.253Z,8.70
2018-11-28T10:28:49.370Z,9.70
2018-11-28T10:31:19.099Z,9.30
2018-11-28T10:33:49.653Z,9.40
2018-11-28T10:36:20.759Z,9.20
2018-11-28T10:38:50.532Z,9.10
2018-11-28T10:41:21.879Z,9.20
2018-11-28T10:43:51.435Z,9.13
2018-11-28T10:46:21.261Z,9.60
2018-11-28T10:48:50.644Z,9.47
2018-11-28T10:51:20.285Z,8.80
2018-11-28T10:53:49.783Z,8.50
2018-11-28T10:56:20.055Z,9.10
2018-11-28T10:58:50.244Z,8.80
2018-11-28T11:01:28.053Z,8.40
2018-11-28T11:04:05.145Z,8.60
2018-11-28T11:06:40.388Z,9.27
2018-11-28T11:09:16.097Z,8.37
2018-11-28T11:11:50.781Z,8.40
2018-11-28T11:14:26.195Z,8.07
2018-11-28T11:16:58.589Z,8.87
2018-11-28T11:19:32.093Z,8.40
2018-11-28T11:22:01.479Z,8.13
2018-11-28T11:24:31.700Z,8.50
2018-11-28T11:27:01.519Z,8.37
2018-11-28T11:29:31.443Z,7.53
2018-11-28T11:32:01.524Z,8.13
2018-11-28T11:34:31.534Z,8.10
2018-11-28T11:37:01.186Z,7.97
2018-11-28T11:39:31.615Z,7.97
2018-11-28T11:42:00.885Z,7.37
2018-11-28T11:44:30.050Z,8.77
2018-11-28T11:46:59.806Z,8.03
2018-11-28T11:49:29.232Z,7.30
2018-11-28T11:52:02.665Z,7.30
2018-11-28T11:54:39.717Z,7.60
2018-11-28T11:57:11.554Z,8.30
2018-11-28T11:59:44.342Z,7.67
2018-11-28T12:02:17.971Z,8.23
2018-11-28T12:04:47.684Z,7.80
2018-11-28T12:07:17.757Z,7.87
2018-11-28T12:10:08.921Z,7.67
2018-11-28T12:13:09.356Z,7.83
2018-11-28T12:15:38.565Z,6.73
2018-11-28T12:18:35.408Z,7.83
2018-11-28T12:21:06.490Z,7.27
2018-11-28T12:24:02.387Z,7.10
2018-11-28T12:26:34.482Z,7.57
2018-11-28T12:32:11.144Z,7.63
2018-11-28T12:45:12.836Z,6.63
2018-11-28T12:48:17.935Z,6.40
2018-11-28T12:51:08.231Z,6.70
2018-11-28T12:56:45.570Z,7.70
2018-11-28T12:59:42.327Z,7.77
2018-11-28T13:02:13.964Z,7.37
2018-11-28T13:05:09.689Z,6.57
2018-11-28T13:07:40.146Z,6.20
2018-11-28T13:10:25.967Z,6.57
2018-11-28T13:12:57.937Z,6.13
2018-11-28T13:18:36.093Z,6.07
2018-11-28T13:24:16.186Z,6.40
2018-11-28T13:26:47.384Z,7.27
2018-11-28T13:32:27.403Z,6.27
2018-11-28T13:34:57.852Z,6.53
2018-11-28T13:38:03.884Z,7.07
2018-11-28T13:40:37.991Z,6.97
2018-11-28T13:43:17.127Z,7.67
2018-11-28T13:45:48.683Z,7.93
2018-11-28T13:48:27.575Z,8.00
2018-11-28T13:51:03.019Z,7.17
2018-11-28T13:54:20.823Z,8.27
2018-11-28T13:59:10.108Z,7.83
2018-11-28T14:01:45.044Z,7.17
2018-11-28T14:04:14.840Z,8.57
2018-11-28T14:06:54.114Z,6.90
2018-11-28T14:09:23.559Z,7.80
2018-11-28T14:15:04.137Z,7.27
2018-11-28T14:20:41.286Z,8.27
2018-11-28T14:23:11.008Z,6.80
2018-11-28T14:26:09.781Z,7.03
2018-11-28T14:28:47.955Z,7.10
2018-11-28T14:31:18.398Z,6.33
2018-11-28T14:37:10.763Z,7.27
2018-11-28T14:40:09.806Z,6.77
2018-11-28T14:42:43.854Z,6.37
2018-11-28T14:48:23.169Z,6.53
2018-11-28T14:51:08.792Z,6.70
2018-11-28T14:53:47.865Z,6.70
2018-11-28T14:59:20.296Z,6.70
2018-11-28T15:08:15.861Z,7.47
2018-11-28T15:14:28.338Z,6.07
2018-11-28T15:16:58.229Z,6.33
2018-11-28T15:19:30.648Z,6.73
2018-11-28T15:22:37.379Z,6.83
2018-11-28T15:25:09.392Z,6.10
2018-11-28T15:27:39.270Z,7.23
2018-11-28T15:33:16.208Z,7.20
2018-11-28T15:35:47.287Z,6.77
2018-11-28T15:41:27.872Z,6.30
2018-11-28T15:44:30.285Z,6.70
2018-11-28T15:47:00.224Z,6.90
2018-11-28T15:52:37.501Z,5.53
2018-11-28T15:55:25.790Z,5.97
2018-11-28T15:57:57.052Z,6.60
2018-11-28T16:01:02.534Z,6.23
2018-11-28T16:03:35.514Z,6.50
2018-11-28T16:09:21.605Z,6.47
2018-11-28T16:11:52.561Z,6.33
2018-11-28T16:14:57.122Z,5.77
2018-11-28T16:17:29.443Z,6.83
2018-11-28T16:20:00.258Z,6.67
2018-11-28T16:25:38.273Z,6.50
2018-11-28T16:28:12.509Z,5.00
2018-11-28T16:30:41.524Z,5.53
2018-11-28T16:33:11.140Z,6.10
2018-11-28T16:35:49.258Z,5.00
2018-11-28T16:41:23.431Z,5.53
2018-11-28T16:43:53.720Z,5.27
2018-11-28T16:49:33.896Z,4.80
2018-11-28T16:55:28.901Z,5.83
2018-11-28T16:58:26.369Z,4.13
2018-11-28T17:00:55.831Z,4.67
2018-11-28T17:03:26.331Z,4.80
2018-11-28T17:05:59.486Z,4.10
2018-11-28T17:09:02.807Z,4.50
2018-11-28T17:11:32.037Z,4.40
2018-11-28T17:17:12.221Z,4.30
2018-11-28T17:19:54.903Z,4.17
2018-11-28T17:22:26.331Z,4.10
2018-11-28T17:28:04.312Z,4.20
2018-11-28T17:33:40.946Z,3.73
2018-11-28T17:36:12.698Z,4.20
2018-11-28T17:41:49.214Z,4.00
2018-11-28T17:44:19.212Z,4.40
2018-11-28T17:46:50.306Z,3.70
2018-11-28T17:49:20.339Z,3.60
2018-11-28T17:52:04.878Z,3.77
2018-11-28T17:54:36.210Z,3.50
2018-11-28T18:00:13.698Z,4.20
2018-11-28T18:03:12.189Z,3.70
2018-11-28T18:05:43.004Z,3.90
2018-11-28T18:08:15.623Z,3.50
2018-11-28T18:13:54.199Z,3.77
2018-11-28T18:16:29.390Z,3.90
2018-11-28T18:18:55.366Z,3.70
2018-11-28T18:21:24.744Z,3.87
2018-11-28T18:24:04.298Z,3.53
2018-11-28T18:26:34.547Z,3.77
2018-11-28T18:29:36.632Z,3.10
2018-11-28T18:32:06.208Z,3.27
2018-11-28T18:40:59.545Z,3.47
2018-11-28T18:43:28.720Z,3.30
2018-11-28T18:49:05.681Z,3.43
2018-11-28T18:52:01.463Z,4.17
2018-11-28T18:54:31.888Z,3.37
2018-11-28T18:57:01.699Z,2.60
2018-11-28T19:02:38.802Z,2.70
2018-11-28T19:05:31.249Z,3.17
2018-11-28T19:08:00.398Z,3.07
2018-11-28T19:13:39.372Z,2.80
2018-11-28T19:16:09.132Z,2.80
2018-11-28T19:18:39.757Z,2.30
2018-11-28T19:21:42.391Z,2.47
2018-11-28T19:24:13.265Z,2.20
2018-11-28T19:29:49.406Z,2.50
2018-11-28T19:32:18.811Z,2.53
2018-11-28T19:37:56.267Z,3.10
2018-11-28T19:40:26.904Z,2.63
2018-11-28T19:46:03.289Z,2.47
2018-11-28T19:48:33.147Z,4.37
2018-11-28T19:51:34.038Z,2.27
2018-11-28T19:54:07.304Z,2.17
2018-11-28T19:56:37.948Z,2.70
2018-11-28T20:02:15.629Z,2.70
2018-11-28T20:04:48.760Z,2.90
2018-11-28T20:07:44.915Z,2.70
2018-11-28T20:10:17.691Z,2.37
2018-11-28T20:12:47.489Z,2.60
2018-11-28T20:15:50.081Z,2.53
2018-11-28T20:18:20.157Z,3.23
2018-11-28T20:20:49.454Z,2.80
2018-11-28T20:23:53.330Z,3.20
2018-11-28T20:26:22.938Z,2.63
2018-11-28T20:28:51.928Z,3.10
2018-11-28T20:31:55.192Z,2.70
2018-11-28T20:34:24.612Z,3.07
2018-11-28T20:36:53.596Z,3.37
2018-11-28T20:39:23.010Z,3.10
2018-11-28T20:41:53.805Z,3.33
2018-11-28T20:44:39.248Z,3.60
2018-11-28T20:47:08.332Z,3.10
2018-11-28T20:50:10.378Z,3.37
2018-11-28T20:52:42.840Z,3.97
2018-11-28T20:55:41.483Z,4.20
2018-11-28T20:58:10.708Z,4.37
2018-11-28T21:00:40.922Z,4.23
2018-11-28T21:03:33.364Z,4.00
2018-11-28T21:06:02.409Z,4.33
2018-11-28T21:08:32.642Z,4.47
2018-11-28T21:11:27.092Z,3.90
2018-11-28T21:13:56.547Z,4.47
2018-11-28T21:16:25.536Z,4.57
2018-11-28T21:22:02.879Z,5.27
2018-11-28T21:24:52.322Z,4.63
2018-11-28T21:27:21.216Z,4.93
2018-11-28T21:32:57.320Z,4.93
2018-11-28T21:35:53.378Z,5.03
2018-11-28T21:38:24.384Z,5.33
2018-11-28T21:40:53.973Z,5.33
2018-11-28T21:43:56.944Z,4.80
2018-11-28T21:46:28.858Z,5.30
2018-11-28T21:48:58.801Z,4.40
2018-11-28T21:52:02.362Z,4.60
2018-11-28T21:54:32.289Z,5.00
2018-11-28T21:57:01.297Z,4.50
2018-11-28T22:02:38.438Z,3.77
2018-11-28T22:05:09.634Z,4.67
2018-11-28T22:08:04.866Z,4.40
2018-11-28T22:10:34.157Z,4.47
2018-11-28T22:13:03.086Z,4.40
2018-11-28T22:15:58.275Z,4.90
2018-11-28T22:18:27.840Z,3.87
2018-11-28T22:20:57.232Z,4.63
2018-11-28T22:26:34.192Z,4.60
2018-11-28T22:29:03.289Z,4.73
2018-11-28T22:32:05.384Z,4.13
2018-11-28T22:34:34.266Z,4.40
2018-11-28T22:37:03.905Z,4.50
2018-11-28T22:42:40.033Z,4.90
2018-11-28T22:45:11.262Z,4.93
2018-11-28T22:48:02.477Z,4.27
2018-11-28T22:50:32.077Z,4.60
2018-11-28T22:53:01.314Z,4.57
2018-11-28T22:55:58.176Z,5.07
2018-11-28T22:58:27.343Z,4.90
2018-11-28T23:04:33.663Z,5.03
2018-11-28T23:10:10.811Z,5.33
2018-11-28T23:13:06.995Z,5.30
2018-11-28T23:15:36.141Z,4.73
2018-11-28T23:18:28.350Z,5.27
2018-11-28T23:20:57.438Z,4.90
2018-11-28T23:26:34.250Z,4.60
2018-11-28T23:29:29.297Z,5.00
2018-11-28T23:31:58.530Z,4.90
2018-11-28T23:34:28.499Z,5.00
2018-11-28T23:37:23.941Z,5.10
2018-11-28T23:39:52.865Z,5.00
2018-11-28T23:42:22.918Z,4.63
2018-11-28T23:44:51.807Z,4.30
2018-11-28T23:47:21.039Z,4.20
2018-11-28T23:49:51.862Z,4.50
2018-11-28T23:52:21.229Z,4.37
2018-11-28T23:54:50.319Z,4.50
2018-11-28T23:57:20.192Z,4.63
2018-11-28T23:59:49.598Z,3.90
